SÍGUENOS

APP INUMET

Disponible en Google Play

Productos aeronáuticos

  • SIGMET
  • METAR / SPECI
  • TAF
  • AIREP
  • Aviso de aeródromo
  • Pronárea
  • Carta superficie
Fecha : 20/11/2017
FTUY 04 SUMU 20 17 15
SUMU TAF 201730Z 2018/2118 33010KT CAVOK TX20/2118Z TN11/2110Z BECMG 2018/2020 SCT015 BKN080 TEMPO 2018/2106 3000 RABR BKN015 OVC050 PROB30 TEMPO 2020/2100 TS FEW040CB BECMG 2104/2106 18012KT 9999 BKN015=
SULS TAF 201730Z 2018/2118 33010KT CAVOK TX20/2118Z TN11/2110Z BECMG 2018/2020 SCT015 BKN080 TEMPO 2018/2106 3000 RABR BKN015 OVC050 PROB30 TEMPO 2020/2100 TS FEW040CB BECMG 2104/2106 18012KT 9999 BKN015=
SUAA TAF 201730Z 2018/2118 33010KT CAVOK TX20/2118Z TN11/2110Z BECMG 2018/2020 SCT015 BKN080 TEMPO 2018/2106 3000 RABR BKN015 OVC050 PROB30 TEMPO 2020/2100 TS FEW040CB BECMG 2104/2106 18012KT 9999 BKN015=
SUCA TAF 201730Z 2018/2118 33010KT 9999 SCT015 BKN080 TX20/2118Z TN11/2110Z TEMPO 2018/2106 3000 RABR BKN015 OVC050 PROB30 TEMPO 2020/2100 TS FEW040CB BECMG 2104/2106 18012KT 9999 BKN015=
SUDU TAF 201730Z 2018/2118 05010KT CAVOK TX20/2118Z TN12/2110Z BECMG 2018/2020 SCT015 BKN080 TEMPO 2018/2106 3000 RABR BKN015 OVC050 PROB30 TEMPO 2020/2100 TS FEW040CB BECMG 2104/2106 18012KT 9999 BKN015=
SUSO TAF 201730Z 2018/2118 11010KT CAVOK TX22/2118Z TN13/2110Z BECMG 2020/2022 33015KT SCT030 BKN070 TEMPO 2102/2114 5000 RABR TEMPO 2104/2110 12015G25KT 3000 TSRA BKN015 FEW040CB OVC060 =
SURV TAF 201730Z 2018/2118 11010KT CAVOK TX22/2118Z TN13/2110Z BECMG 2020/2022 33015KT SCT030 BKN070 TEMPO 2104/2116 5000 RABR BKN008 OVC060 =

Predictor : Ana Olivera


Mensajes TAF vigentes - Internacionales


Argentina
TAF AMD SAAR 202100Z 2021/2118 11015KT 7000 -TSRA SCT035 FEW045CB OVC050 TX27/2118Z TN14/2109Z BECMG 2102/2104 11010KT 9999 SCT020 BKN035 BECMG 2106/2108 VRB03KT 6000 SCT010 BECMG 2112/2114 16010KT 9999 SCT030
TAF SAME 201700Z 2018/2118 14010KT 9999 FEW040 TX30/2020Z TN14/2110Z TX30/2020Z BECMG 2102/2104 18010KT 9999 SCT030 FEW040TCU
TAF SABE 201700Z 2018/2118 30010KT 3000 RA SCT035 OVC050 TX20/2116Z TN13/2108Z PROB40 TEMPO 2019/2022 32010KT 6000 -TSRA BKN020 FEW035CB OVC050 BECMG 2100/2102 18010KT 9999 SCT020 BKN100 BECMG 2112/2114 11010KT CAVOK
TAF COR SACO 201700Z 2018/2118 02015G25KT 9999 FEW040TCU TX31/2118Z TN14/2110Z PROB30 TEMPO 2022/2100 18015G25KT 7000 VCTS SHRA BKN020 FEW030CB BECMG 2112/2115 09005KT 9999 SCT035
TAF SAEZ 201700Z 2018/2118 36010KT 3000 RA SCT025 OVC050 TX20/2118Z TN08/2109Z PROB40 TEMPO 2019/2022 6000 -TSRA FEW045CB OVC045 BECMG 2023/2101 15005KT 9999 SCT035 BECMG 2105/2107 16010KT 6000 NSC BECMG 2112/2114 11010KT CAVOK
Bolivia
TAF SLLP 201645Z 2018/2118 25008KT 9999 FEW020 TX20/2020Z TNM01/2110Z TEMPO 2019/2021 25013KT FEW020 FEW023CB BECMG 2101/2105 10005KT FEW013 TEMPO 2106/2109 3000E VCFG FEW002 SCT012
Brasil
TAF SBBR 201600Z 2018/2118 34008KT 8000 NSC TX26/2018Z TN20/2106Z PRO B40 2018/2019 BKN030 FEW035TCU PROB30 2019/2024 TSRA BKN020 FEW040CB BECMG 2102/2104 02005KT CAVOK BECMG 2107/2108 18005KT 8000 NSC PROB30 2109/2111 BKN010 BECMG 2111/2112 03007KT BECMG 2114/2116 SCT030 FEW0 45TCU RMK PDA
TAF SBSP 201500Z 2018/2118 18010KT 7000 BKN008 TN18/2108Z TX22/2116Z TEMPO 2018/2022 3000 DZ OVC006 BECMG 2112/2114 08004KT BKN017 TEMPO 2116/2118 6000 RA BKN008 RMK PGH
TAF SBPA 201500Z 2018/2118 16007KT CAVOK TX28/2018Z TN16/2108Z BECMG 2020/2022 12007KT BECMG 2108/2110 9999 SCT030 PROB40 TEMPO 2110/2112 8000 RA B KN030 BECMG 2112/2114 BKN030 RMK PDW
TAF SBGR 201500Z 2018/2124 14010KT 7000 BKN008 TN18/2108Z TX22/2115Z BECMG 2020/2022 12005KT OVC008 BECMG 2112/2114 08004KT BKN017 TEMPO 2116/2120 6000 RA BKN008 BECMG 2120/2122 12005KT OVC008 RMK PGH
TAF SBFL 201500Z 2018/2118 36010KT 9999 SCT045 TX26/2018Z TN20/2108Z BECMG 2100/2102 33005KT BKN030 PROB40 TEMPO 2106/2110 BKN010 BECMG 2112/21 14 36010KT FEW035 RMK PDW
TAF SBFI 201500Z 2018/2118 08005KT CAVOK TX30/2018Z TN20/2108Z BECMG 2110/2112 9999 SCT025 RMK PDW
TAF SBRJ 201400Z 2018/2106 17010KT 5000 RA BR BKN007 BKN015 TX24/2018Z TN22/2106Z BECMG 2020/2023 14005KT 7000 NSW BKN013 BKN030 RMK PHC
Chile
TAF SCCI 201645Z 2018/2118 25018G30KT 9999 SCT040 TX11/2018Z TN06/2110Z TEMPO 2018/2102 24030KT PROB30 TEMPO 2019/2022 9000 -SHRA BKN030 BECMG 2115/2117 8000 -RA SCT020 BKN030
TAF SCEL 201606Z 2018/2118 19013KT CAVOK TX26/2019Z TN10/2110Z BECMG 2020/2022 21019KT SCT150 BKN230 BECMG 2101/2103 16007KT CAVOK TEMPO 2106/2113 VRB02KT 7000 NSC
Ecuador
SEQM 201545Z 2018/2118 36012KT 9999 SCT020 BKN080 FM202200 02004KT 8000 RA BKN020 BKN080 FM210100 00000KT 9999 SCT016 SCT080 FM211200 VRB03KT 9999 SCT020 BKN080 TX21/2019Z TN11/21ZZ
EEUU
KMIA 202109Z 2021/2124 06012KT P6SM SCT030 BKN050 FM210100 08010KT P6SM VCSH BKN035 BKN050 FM210300 08008KT P6SM -SHRA SCT025 BKN035 FM210800 09006KT P6SM VCSH SCT025 BKN040 FM211400 12010KT P6SM VCSH SCT025 BKN045
KIAD 202102Z 2021/2124 20008KT P6SM SKC FM211100 20008KT P6SM FEW200 FEW250 WS020/22035KT FM211300 20008KT P6SM FEW200 FEW250 FM211700 20012KT P6SM FEW200 SCT250
KDCA 202102Z 2021/2118 23008KT P6SM SKC FM211200 20009KT P6SM FEW200 FEW250 WS020/22035KT FM211300 21009KT P6SM FEW200 FEW250
KLGA 202058Z 2021/2118 27014G23KT P6SM FEW060 FM202300 26013G20KT P6SM FEW200 FM210200 25012KT P6SM SKC FM210800 22011KT P6SM FEW300 FM211300 21012G20KT P6SM FEW250
KJFK 202058Z 2021/2124 27014G21KT P6SM FEW060 FM210200 25012KT P6SM SKC FM210800 22010KT P6SM FEW300 FM211300 22012G22KT P6SM FEW250
Francia
TAF LFPO 201700Z 2018/2124 21007KT 9999 BKN020 TEMPO 2018/2023 BKN014 BECMG 2021/2023 BKN008 TEMPO 2100/2112 OVC004 PROB30 TEMPO 2105/2111 OVC002 BECMG 2111/2114 BKN014
Paraguay
TAF SGAS 201534Z 2018/2118 07006KT CAVOK TX32/2018Z TN19/2109Z BECMG 2021/2023 VRB03KT 8000 NSC FM210100 CAVOK
Venezuela
TAF SVMI 201600Z 2018/2118 09006KT 9999 SCT016 TX34/19Z TN24/08Z BECMG 2018/2022 04010KT BKN016

* Datos extraidos del Text DataServer de la NOAA (NOAA TEXT DATA SERVER)

Instituto Uruguayo de Meteorología

Dr. Javier Barrios Amorín 1488 - CP 11200
Mesa Central (598) 1895 - Desde el interior 21895

Montevideo - Uruguay